Time;durP1;ratioP1;P1;durP2;ratioP2;P2;SDS_P1;SDS_P2;PMS_P1;PMS_P2;Temp;Humidity;BMP_temperature;BMP_pressure;BME280_temperature;BME280_humidity;BME280_pressure;Samples;Min_cycle;Max_cycle;Signal;HPM_P1;HPM_P2
2023/07/19 00:01:05;;;;;;;9.50;7.00;;;;;;;22.19;78.40;99005.95;82077;1295;3012987;-66
2023/07/19 00:03:32;;;;;;;12.40;7.60;;;;;;;21.99;78.02;99005.60;82093;1294;3011243;-67
2023/07/19 00:06:01;;;;;;;9.20;6.60;;;;;;;21.90;77.43;99005.39;80803;1294;3051289;-70
2023/07/19 00:08:30;;;;;;;10.40;6.80;;;;;;;21.61;77.36;99018.20;82083;1295;3012396;-69
2023/07/19 00:10:59;;;;;;;8.20;6.30;;;;;;;21.49;77.28;99024.63;80780;1295;3026283;-66
2023/07/19 00:13:26;;;;;;;7.30;4.60;;;;;;;21.46;77.20;99023.58;82092;1295;3012792;-71
2023/07/19 00:15:54;;;;;;;7.20;5.30;;;;;;;21.91;74.42;99027.02;82091;1294;3011295;-69
2023/07/19 00:18:22;;;;;;;11.60;5.30;;;;;;;22.20;72.25;99018.52;80760;1294;3053028;-67
2023/07/19 00:20:48;;;;;;;11.30;5.50;;;;;;;22.14;71.84;99012.08;82056;1298;3018024;-67
2023/07/19 00:23:15;;;;;;;7.90;5.60;;;;;;;21.82;72.09;99006.13;82062;1298;3011196;-67
2023/07/19 00:25:45;;;;;;;8.10;5.70;;;;;;;21.68;72.40;98996.71;80820;1295;3026341;-71
2023/07/19 00:28:11;;;;;;;11.10;5.90;;;;;;;21.50;72.63;99002.77;82046;1296;3011460;-69
2023/07/19 00:30:41;;;;;;;8.60;5.00;;;;;;;21.39;73.03;99011.01;81494;1295;3011420;-71
2023/07/19 00:33:08;;;;;;;8.40;5.80;;;;;;;21.20;73.46;99015.23;82060;1295;3012762;-67
2023/07/19 00:35:40;;;;;;;9.50;5.80;;;;;;;21.04;74.65;99025.52;82051;1294;3011090;-69
2023/07/19 00:38:08;;;;;;;8.50;5.90;;;;;;;20.90;76.39;99026.19;80750;1295;3052304;-66
2023/07/19 00:40:34;;;;;;;10.80;7.00;;;;;;;21.23;75.89;99018.16;82002;1301;3018107;-65
2023/07/19 00:43:01;;;;;;;10.70;7.00;;;;;;;21.31;75.56;99012.11;82016;1295;3011315;-68
2023/07/19 00:45:29;;;;;;;18.40;6.90;;;;;;;21.23;75.57;99015.28;80649;1295;3026309;-66
2023/07/19 00:47:56;;;;;;;8.70;6.20;;;;;;;21.00;76.21;99017.13;82080;1296;3018042;-67
2023/07/19 00:50:23;;;;;;;12.70;7.20;;;;;;;20.85;77.14;99011.27;82040;1295;3011313;-64
2023/07/19 00:52:50;;;;;;;10.00;6.80;;;;;;;20.83;77.58;99006.36;80769;1298;3025445;-65
2023/07/19 00:55:17;;;;;;;8.00;5.40;;;;;;;20.67;78.91;99014.71;82062;1295;3017884;-65
2023/07/19 00:57:44;;;;;;;9.50;5.80;;;;;;;20.99;77.52;99010.15;82022;1295;3011075;-66
2023/07/19 01:00:12;;;;;;;8.60;6.30;;;;;;;21.22;76.25;99002.59;80780;1294;3026304;-64
2023/07/19 01:02:38;;;;;;;11.00;5.80;;;;;;;21.22;76.01;99005.58;82080;1294;3013441;-63
2023/07/19 01:05:05;;;;;;;8.40;6.30;;;;;;;21.06;76.20;99004.69;81897;1295;3011280;-64
2023/07/19 01:07:34;;;;;;;7.90;5.50;;;;;;;20.87;76.04;99009.23;80719;1296;3051880;-65
2023/07/19 01:10:00;;;;;;;11.40;6.10;;;;;;;20.64;76.93;99013.92;82112;1295;3013153;-65
2023/07/19 01:12:27;;;;;;;12.50;6.50;;;;;;;20.48;77.37;99011.92;82088;1294;3011268;-65
2023/07/19 01:14:54;;;;;;;9.00;4.60;;;;;;;20.30;77.98;99004.07;80724;1298;3026100;-64
2023/07/19 01:17:21;;;;;;;8.00;5.40;;;;;;;20.65;76.21;99004.97;82064;1295;3018362;-66
2023/07/19 01:19:48;;;;;;;12.60;5.20;;;;;;;20.97;74.30;99004.62;82023;1295;3011250;-68
2023/07/19 01:22:16;;;;;;;7.90;5.20;;;;;;;21.07;73.49;99009.06;80798;1298;3053446;-63
2023/07/19 01:24:43;;;;;;;9.80;5.50;;;;;;;20.66;74.16;99007.33;81943;1298;3011124;-64
2023/07/19 01:27:09;;;;;;;6.30;5.00;;;;;;;20.58;74.34;99002.17;82042;1298;3011132;-63
2023/07/19 01:29:37;;;;;;;6.80;4.80;;;;;;;20.56;72.87;98994.34;80762;1295;3026900;-64
2023/07/19 01:32:04;;;;;;;8.30;4.90;;;;;;;20.36;71.76;98992.48;82086;1294;3013259;-63
2023/07/19 01:34:31;;;;;;;11.80;4.50;;;;;;;20.34;71.59;98994.25;82017;1295;3011393;-65
2023/07/19 01:36:59;;;;;;;7.50;4.50;;;;;;;20.31;70.98;98988.48;80827;1295;3027635;-63
2023/07/19 01:39:25;;;;;;;7.60;4.60;;;;;;;20.16;70.59;98991.33;82075;1298;3012654;-65
2023/07/19 01:41:52;;;;;;;6.40;4.50;;;;;;;20.04;70.81;98990.52;82070;1295;3011460;-63
2023/07/19 01:44:20;;;;;;;8.10;4.70;;;;;;;20.09;70.17;98995.48;80772;1295;3027531;-67
2023/07/19 01:46:46;;;;;;;6.60;4.60;;;;;;;20.07;70.05;98988.42;82050;1298;3012554;-62
2023/07/19 01:49:13;;;;;;;7.70;4.70;;;;;;;19.92;69.84;98993.91;82012;1295;3011549;-65
2023/07/19 01:51:41;;;;;;;9.30;4.70;;;;;;;19.92;69.46;98997.95;80795;1298;3025877;-64
2023/07/19 01:54:08;;;;;;;7.30;4.10;;;;;;;19.83;69.18;99005.19;79985;1294;3044121;-63
2023/07/19 01:56:36;;;;;;;10.50;4.80;;;;;;;19.81;69.60;99007.04;82110;1293;3011227;-66
2023/07/19 01:59:04;;;;;;;4.70;3.70;;;;;;;19.80;69.42;99015.98;80822;1294;3026096;-64
2023/07/19 02:01:32;;;;;;;10.40;4.50;;;;;;;19.71;69.17;99017.16;82114;1293;3011450;-64
2023/07/19 02:03:58;;;;;;;5.10;4.20;;;;;;;19.65;70.06;99022.92;82118;1295;3011163;-66
2023/07/19 02:06:26;;;;;;;6.80;5.00;;;;;;;19.56;72.10;99023.69;80796;1298;3051576;-65
2023/07/19 02:08:53;;;;;;;6.00;3.90;;;;;;;19.51;72.70;99029.56;82145;1295;3018259;-68
2023/07/19 02:11:19;;;;;;;7.00;4.00;;;;;;;19.95;70.90;99029.84;82074;1298;3010995;-64
2023/07/19 02:13:47;;;;;;;9.30;4.50;;;;;;;20.33;70.14;99023.90;80784;1293;3025650;-63
2023/07/19 02:16:15;;;;;;;6.70;4.50;;;;;;;20.29;69.27;99028.91;82056;1295;3012541;-64
2023/07/19 02:22:16;;;;;;;5.50;4.00;;;;;;;20.11;68.39;99027.27;80058;1299;3012996;-64
2023/07/19 02:24:42;;;;;;;6.90;4.30;;;;;;;20.12;67.96;99029.86;79082;1302;3019203;-65
2023/07/19 02:27:10;;;;;;;7.70;5.00;;;;;;;20.00;67.80;99032.02;79218;1301;3011939;-65
2023/07/19 02:29:39;;;;;;;7.60;4.90;;;;;;;19.87;67.78;99030.60;77963;1304;3053316;-63
2023/07/19 02:32:06;;;;;;;8.70;4.60;;;;;;;19.85;67.93;99038.55;79052;1304;3013174;-65
2023/07/19 02:34:32;;;;;;;10.90;5.00;;;;;;;19.72;68.76;99035.36;77397;1300;3011643;-65
2023/07/19 02:37:00;;;;;;;13.70;4.80;;;;;;;19.63;68.90;99029.10;78250;1295;3026546;-64
2023/07/19 02:39:29;;;;;;;7.90;5.60;;;;;;;19.54;69.01;99033.64;79445;1296;3013926;-64
2023/07/19 02:41:58;;;;;;;8.20;4.90;;;;;;;19.43;68.72;99041.53;78795;1298;3013809;-64
2023/07/19 02:44:25;;;;;;;6.40;5.30;;;;;;;19.40;68.56;99033.86;79499;1295;3013669;-65
2023/07/19 02:46:53;;;;;;;8.70;4.60;;;;;;;19.40;67.53;99024.59;82054;1293;3011185;-65
2023/07/19 02:49:21;;;;;;;13.80;4.90;;;;;;;19.40;66.58;99024.64;80826;1295;3050607;-65
2023/07/19 02:51:47;;;;;;;8.30;4.30;;;;;;;19.36;65.95;99036.23;82130;1294;3013078;-66
2023/07/19 02:54:14;;;;;;;8.50;4.40;;;;;;;19.35;65.51;99040.98;82065;1294;3011214;-64
2023/07/19 02:56:42;;;;;;;6.00;3.70;;;;;;;19.30;65.64;99040.23;80836;1295;3027605;-64
2023/07/19 02:59:08;;;;;;;9.00;4.50;;;;;;;19.31;65.28;99039.59;82050;1295;3018043;-67
2023/07/19 03:01:36;;;;;;;7.40;4.00;;;;;;;19.36;64.38;99034.83;82033;1295;3011391;-63
2023/07/19 03:04:06;;;;;;;6.10;4.30;;;;;;;19.39;64.91;99034.48;80730;1295;3049648;-63
2023/07/19 03:06:33;;;;;;;7.20;4.60;;;;;;;19.40;64.01;99037.55;82156;1293;3013098;-65
2023/07/19 03:08:59;;;;;;;8.40;3.50;;;;;;;19.33;63.83;99036.76;82126;1294;3011340;-65
2023/07/19 03:11:27;;;;;;;6.80;4.00;;;;;;;19.27;63.79;99039.23;80815;1294;3049772;-66
2023/07/19 03:13:53;;;;;;;5.60;3.90;;;;;;;19.19;64.21;99041.70;82077;1294;3013202;-65
2023/07/19 03:16:20;;;;;;;8.70;4.20;;;;;;;19.20;64.37;99044.16;82072;1295;3011487;-63
2023/07/19 03:18:48;;;;;;;7.50;4.70;;;;;;;19.25;64.73;99045.46;80851;1294;3025832;-63
2023/07/19 03:21:14;;;;;;;8.40;4.80;;;;;;;19.12;66.27;99059.49;82128;1292;3012664;-64
2023/07/19 03:23:42;;;;;;;9.70;5.20;;;;;;;19.01;67.09;99054.20;82128;1293;3011470;-63
2023/07/19 03:26:09;;;;;;;7.40;5.80;;;;;;;19.01;67.81;99053.17;80851;1292;3026369;-63
2023/07/19 03:28:36;;;;;;;11.90;6.00;;;;;;;18.92;67.98;99054.61;82102;1295;3011562;-63
2023/07/19 03:31:03;;;;;;;9.70;6.30;;;;;;;18.73;69.00;99054.36;82105;1292;3011247;-61
2023/07/19 03:33:31;;;;;;;8.80;5.10;;;;;;;18.81;68.60;99051.79;80827;1292;3049980;-64
2023/07/19 03:35:58;;;;;;;6.30;5.10;;;;;;;18.81;68.50;99049.70;82109;1292;3018492;-65
2023/07/19 03:38:24;;;;;;;9.80;5.70;;;;;;;18.77;68.57;99051.80;82048;1292;3011257;-65
2023/07/19 03:40:54;;;;;;;10.30;5.10;;;;;;;18.78;68.42;99051.84;80806;1294;3049311;-64
2023/07/19 03:43:21;;;;;;;8.30;4.40;;;;;;;18.76;68.58;99044.41;82092;1294;3012614;-63
2023/07/19 03:45:47;;;;;;;11.10;4.70;;;;;;;18.87;68.12;99047.11;82067;1295;3011330;-63
2023/07/19 03:48:15;;;;;;;9.00;3.60;;;;;;;18.86;68.12;99050.60;80837;1294;3026625;-64
2023/07/19 03:50:42;;;;;;;8.40;4.50;;;;;;;18.83;67.83;99044.59;82113;1294;3011314;-64
2023/07/19 03:53:09;;;;;;;8.90;4.50;;;;;;;18.85;67.71;99046.29;82065;1294;3011247;-70
2023/07/19 03:55:38;;;;;;;7.10;4.30;;;;;;;18.90;67.36;99043.62;80823;1292;3049086;-67
2023/07/19 03:58:06;;;;;;;7.10;4.00;;;;;;;18.97;67.49;99043.23;82107;1294;3012786;-69
2023/07/19 04:00:32;;;;;;;9.60;4.40;;;;;;;18.99;67.35;99042.12;82065;1293;3011484;-68
2023/07/19 04:03:00;;;;;;;6.60;4.40;;;;;;;19.13;67.04;99042.92;80860;1292;3051814;-70
2023/07/19 04:05:27;;;;;;;7.30;4.40;;;;;;;19.23;66.64;99038.61;82134;1292;3012327;-68
2023/07/19 04:07:54;;;;;;;5.00;4.10;;;;;;;19.13;66.35;99041.11;82076;1292;3011301;-70
2023/07/19 04:10:22;;;;;;;9.20;3.80;;;;;;;19.21;66.13;99048.78;80885;1292;3049394;-71
2023/07/19 04:12:49;;;;;;;8.60;4.40;;;;;;;19.19;65.01;99051.10;82113;1294;3013266;-70
2023/07/19 04:15:17;;;;;;;8.10;4.50;;;;;;;19.09;65.75;99058.38;82072;1294;3011567;-65
2023/07/19 04:17:45;;;;;;;7.70;4.50;;;;;;;19.12;66.06;99059.63;80823;1295;3050181;-67
2023/07/19 04:20:11;;;;;;;7.70;4.40;;;;;;;19.05;66.40;99061.61;82065;1292;3012910;-64
2023/07/19 04:22:39;;;;;;;6.40;4.00;;;;;;;19.19;66.41;99063.63;82086;1295;3011186;-64
2023/07/19 04:25:08;;;;;;;7.20;4.20;;;;;;;19.12;65.42;99068.52;80826;1298;3048833;-62
2023/07/19 04:27:35;;;;;;;5.90;4.30;;;;;;;19.01;66.35;99069.11;82151;1295;3012558;-65
2023/07/19 04:30:01;;;;;;;7.70;4.10;;;;;;;19.00;66.38;99070.11;82108;1295;3011047;-67
2023/07/19 04:32:29;;;;;;;6.60;4.50;;;;;;;19.10;66.63;99070.33;80814;1292;3049341;-65
2023/07/19 04:34:58;;;;;;;11.60;4.00;;;;;;;19.18;65.44;99070.20;82155;1292;3018208;-66
2023/07/19 04:37:24;;;;;;;8.60;3.90;;;;;;;19.14;64.91;99076.36;82052;1292;3011278;-66
2023/07/19 04:39:52;;;;;;;8.60;4.10;;;;;;;19.20;65.15;99071.98;80796;1293;3048674;-64
2023/07/19 04:42:21;;;;;;;4.90;4.00;;;;;;;19.29;64.87;99079.78;82050;1298;3012762;-66
2023/07/19 04:44:48;;;;;;;6.10;3.70;;;;;;;19.32;64.33;99080.48;82004;1294;3011330;-67
2023/07/19 04:47:16;;;;;;;10.90;3.60;;;;;;;19.36;63.89;99086.02;80809;1293;3050626;-67
2023/07/19 04:49:43;;;;;;;9.20;4.00;;;;;;;19.47;63.59;99086.96;82133;1292;3013106;-64
2023/07/19 04:52:09;;;;;;;7.00;4.10;;;;;;;19.46;63.24;99091.67;82131;1292;3011350;-64
2023/07/19 04:54:38;;;;;;;10.90;4.30;;;;;;;19.53;63.52;99100.74;80890;1292;3048920;-66
2023/07/19 04:57:05;;;;;;;6.70;4.00;;;;;;;19.51;63.58;99108.70;82165;1295;3012770;-65
2023/07/19 04:59:33;;;;;;;15.60;4.60;;;;;;;19.49;63.72;99108.37;82093;1298;3011128;-67
2023/07/19 05:02:01;;;;;;;9.20;4.00;;;;;;;19.52;63.87;99106.66;80941;1292;3049410;-64
2023/07/19 05:04:27;;;;;;;6.50;3.90;;;;;;;19.60;63.67;99107.49;82156;1292;3012557;-63
2023/07/19 05:06:54;;;;;;;8.80;4.70;;;;;;;19.56;63.38;99106.95;82125;1295;3011172;-64
2023/07/19 05:09:22;;;;;;;6.30;3.40;;;;;;;19.68;62.70;99106.42;80827;1292;3026433;-66
2023/07/19 05:11:48;;;;;;;8.80;3.70;;;;;;;19.73;62.08;99104.48;82160;1298;3012727;-63
2023/07/19 05:14:16;;;;;;;7.60;3.70;;;;;;;19.81;61.52;99104.91;82051;1294;3011246;-66
2023/07/19 05:16:44;;;;;;;9.90;4.00;;;;;;;19.66;61.26;99107.15;80839;1295;3050382;-65
2023/07/19 05:19:14;;;;;;;6.20;3.50;;;;;;;19.69;61.96;99102.38;82095;1294;3011219;-66
2023/07/19 05:21:43;;;;;;;7.40;4.10;;;;;;;19.91;61.09;99099.84;81534;1294;3011356;-66
2023/07/19 05:24:09;;;;;;;6.80;3.60;;;;;;;20.09;60.10;99100.98;82095;1292;3018176;-65
2023/07/19 05:26:36;;;;;;;7.30;3.40;;;;;;;20.24;59.25;99096.72;82083;1294;3011347;-64
2023/07/19 05:29:04;;;;;;;9.40;3.70;;;;;;;20.39;59.21;99096.30;80908;1296;3026232;-67
2023/07/19 05:31:31;;;;;;;7.10;3.50;;;;;;;20.61;58.63;99100.57;82180;1292;3012315;-64
2023/07/19 05:33:58;;;;;;;5.60;3.30;;;;;;;20.80;58.33;99096.36;82196;1292;3011162;-65
2023/07/19 05:36:26;;;;;;;7.60;3.60;;;;;;;20.93;57.46;99101.52;80884;1292;3049753;-63
2023/07/19 05:38:53;;;;;;;6.10;3.20;;;;;;;20.90;56.47;99104.00;82177;1293;3018225;-64
2023/07/19 05:41:19;;;;;;;7.40;3.50;;;;;;;20.94;56.66;99109.94;82137;1294;3011140;-64
2023/07/19 05:43:48;;;;;;;7.60;3.20;;;;;;;20.84;55.87;99112.70;80914;1293;3026513;-67
2023/07/19 05:46:14;;;;;;;6.50;3.40;;;;;;;20.80;56.20;99104.44;82161;1295;3017964;-62
2023/07/19 05:48:41;;;;;;;9.90;3.50;;;;;;;20.83;56.12;99111.66;82153;1294;3011237;-65
2023/07/19 05:51:09;;;;;;;6.50;3.10;;;;;;;20.84;56.18;99113.27;80898;1292;3026625;-65
2023/07/19 05:53:35;;;;;;;14.30;3.30;;;;;;;20.88;55.30;99114.52;82132;1293;3013254;-64
2023/07/19 05:56:02;;;;;;;7.10;2.80;;;;;;;20.84;55.75;99118.18;82131;1293;3011552;-65
2023/07/19 05:58:31;;;;;;;10.80;2.70;;;;;;;20.98;55.40;99116.30;80918;1293;3053132;-66
2023/07/19 06:00:57;;;;;;;11.50;2.80;;;;;;;20.86;54.65;99114.77;82198;1293;3018606;-67
2023/07/19 06:03:24;;;;;;;7.70;3.10;;;;;;;20.74;55.15;99112.88;82169;1292;3011234;-70
2023/07/19 06:05:52;;;;;;;8.10;2.60;;;;;;;20.77;55.14;99110.40;80866;1294;3025773;-67
2023/07/19 06:08:18;;;;;;;8.40;2.50;;;;;;;20.79;53.38;99102.77;82157;1294;3017902;-67
2023/07/19 06:10:45;;;;;;;4.70;2.90;;;;;;;20.86;53.40;99106.98;82104;1294;3011365;-69
2023/07/19 06:13:14;;;;;;;12.50;2.60;;;;;;;20.70;52.94;99105.09;80900;1295;3026494;-69
2023/07/19 06:15:40;;;;;;;3.30;2.20;;;;;;;20.66;52.57;99102.66;82139;1295;3012440;-67
2023/07/19 06:18:07;;;;;;;8.40;2.20;;;;;;;20.70;51.33;99103.36;82138;1292;3011122;-66
2023/07/19 06:20:35;;;;;;;4.20;1.50;;;;;;;20.61;50.44;99108.74;80865;1292;3049293;-69
2023/07/19 06:23:02;;;;;;;3.50;1.80;;;;;;;20.66;50.18;99098.81;82144;1292;3012872;-69
2023/07/19 06:25:29;;;;;;;4.70;1.60;;;;;;;20.58;50.09;99100.73;82114;1295;3011441;-69
2023/07/19 06:27:57;;;;;;;1.60;1.30;;;;;;;20.58;49.89;99100.33;80843;1298;3051882;-65
2023/07/19 06:30:24;;;;;;;6.80;1.70;;;;;;;20.62;49.81;99099.38;82182;1292;3012803;-68
2023/07/19 06:32:50;;;;;;;3.50;1.50;;;;;;;20.66;49.51;99100.17;82126;1292;3011255;-67
2023/07/19 06:35:18;;;;;;;3.70;1.60;;;;;;;20.62;49.50;99106.30;80915;1292;3026619;-65
2023/07/19 06:37:44;;;;;;;2.60;2.00;;;;;;;20.65;49.67;99100.14;82190;1292;3013215;-66
2023/07/19 06:40:11;;;;;;;5.60;1.60;;;;;;;20.82;49.07;99095.82;82180;1295;3011122;-65
2023/07/19 06:42:39;;;;;;;3.60;1.60;;;;;;;20.81;48.02;99098.02;80932;1295;3027747;-67
2023/07/19 06:45:06;;;;;;;4.70;1.40;;;;;;;20.91;47.74;99104.79;82144;1295;3018858;-64
2023/07/19 06:47:34;;;;;;;3.80;1.50;;;;;;;20.80;47.03;99105.44;82200;1292;3011514;-64
2023/07/19 06:50:02;;;;;;;2.00;1.30;;;;;;;20.74;47.36;99093.77;80897;1292;3048732;-65
2023/07/19 06:52:29;;;;;;;4.00;1.30;;;;;;;20.87;46.79;99098.80;82199;1292;3013182;-66
2023/07/19 06:54:55;;;;;;;3.30;1.20;;;;;;;20.95;46.31;99102.70;82161;1292;3011437;-66
2023/07/19 06:57:23;;;;;;;1.80;1.00;;;;;;;21.00;45.78;99107.95;80955;1295;3026041;-67
2023/07/19 06:59:50;;;;;;;6.90;1.40;;;;;;;21.10;46.05;99101.80;82211;1292;3012833;-65
2023/07/19 07:02:20;;;;;;;5.80;1.20;;;;;;;21.02;46.16;99107.52;82198;1292;3011509;-66
2023/07/19 07:04:49;;;;;;;3.30;1.30;;;;;;;21.06;46.10;99106.57;80927;1292;3049857;-65
2023/07/19 07:07:19;;;;;;;4.10;1.20;;;;;;;21.12;46.13;99109.09;82216;1292;3011329;-65
2023/07/19 07:09:47;;;;;;;1.50;1.00;;;;;;;21.24;45.69;99110.11;80941;1295;3053054;-62
2023/07/19 07:12:13;;;;;;;2.60;1.30;;;;;;;21.36;45.31;99102.66;82232;1292;3013687;-68
2023/07/19 07:14:40;;;;;;;5.00;1.10;;;;;;;21.30;45.41;99108.40;82218;1292;3011289;-68
2023/07/19 07:17:08;;;;;;;5.10;1.30;;;;;;;21.35;45.93;99107.27;80950;1292;3024961;-65
2023/07/19 07:19:35;;;;;;;4.70;1.30;;;;;;;21.54;45.32;99106.40;82187;1292;3013103;-64
2023/07/19 07:22:02;;;;;;;4.20;1.20;;;;;;;21.49;44.84;99110.02;82150;1297;3011233;-66
2023/07/19 07:24:30;;;;;;;3.50;1.20;;;;;;;21.42;45.19;99100.18;80964;1295;3052999;-68
2023/07/19 07:26:57;;;;;;;5.50;1.20;;;;;;;21.54;45.30;99103.42;82254;1292;3012824;-65
2023/07/19 07:29:23;;;;;;;3.40;1.50;;;;;;;21.60;44.96;99104.14;82206;1292;3011452;-67
2023/07/19 07:31:51;;;;;;;2.20;1.00;;;;;;;21.62;44.61;99099.66;80938;1292;3025585;-67
2023/07/19 07:34:18;;;;;;;6.80;1.00;;;;;;;21.69;44.41;99098.52;82198;1292;3018383;-67
2023/07/19 07:36:44;;;;;;;5.20;1.10;;;;;;;21.71;42.42;99098.83;82146;1298;3011063;-68
2023/07/19 07:39:12;;;;;;;3.80;1.20;;;;;;;21.77;43.06;99093.13;80875;1295;3026508;-69
2023/07/19 07:41:39;;;;;;;7.80;1.10;;;;;;;22.02;43.20;99090.84;82151;1294;3013102;-67
2023/07/19 07:44:06;;;;;;;3.20;1.20;;;;;;;22.17;43.74;99088.92;82162;1294;3011224;-73
2023/07/19 07:46:34;;;;;;;3.10;1.30;;;;;;;22.20;44.30;99087.95;80879;1292;3025971;-71
2023/07/19 07:49:01;;;;;;;12.40;1.50;;;;;;;22.40;44.39;99087.52;82131;1292;3012746;-66
2023/07/19 07:51:31;;;;;;;5.00;1.00;;;;;;;22.36;42.64;99092.27;82161;1292;3011018;-68
2023/07/19 07:53:58;;;;;;;5.30;0.90;;;;;;;22.36;41.90;99089.83;80932;1297;3052113;-66
2023/07/19 07:56:25;;;;;;;4.60;0.90;;;;;;;22.10;42.02;99092.29;82213;1292;3013151;-68
2023/07/19 07:58:51;;;;;;;3.60;1.10;;;;;;;22.14;42.52;99086.98;82187;1292;3011376;-66
2023/07/19 08:01:20;;;;;;;1.90;1.00;;;;;;;22.03;42.36;99093.94;80942;1292;3026784;-65
2023/07/19 08:03:46;;;;;;;3.70;1.00;;;;;;;22.18;42.44;99089.07;82195;1292;3013193;-66
2023/07/19 08:06:13;;;;;;;5.80;1.10;;;;;;;22.41;41.74;99080.99;82153;1294;3011392;-66
2023/07/19 08:08:43;;;;;;;1.90;0.80;;;;;;;22.59;40.74;99077.18;80876;1295;3050959;-67
2023/07/19 08:11:10;;;;;;;6.20;1.00;;;;;;;22.78;40.74;99079.63;82166;1292;3012998;-69
2023/07/19 08:13:37;;;;;;;2.40;1.00;;;;;;;22.87;40.50;99081.78;82133;1292;3011422;-67
2023/07/19 08:16:06;;;;;;;2.90;1.20;;;;;;;22.90;40.67;99075.65;80879;1294;3026639;-69
2023/07/19 08:18:36;;;;;;;2.20;1.00;;;;;;;23.02;40.65;99084.09;82176;1292;3013121;-68
2023/07/19 08:21:05;;;;;;;5.40;1.30;;;;;;;22.82;40.56;99088.23;80828;1295;3048739;-68
2023/07/19 08:23:32;;;;;;;4.20;1.30;;;;;;;23.00;40.49;99082.12;82118;1295;3012369;-67
2023/07/19 08:25:59;;;;;;;4.30;1.30;;;;;;;23.18;39.87;99077.20;82135;1295;3011161;-71
2023/07/19 08:28:27;;;;;;;4.40;1.40;;;;;;;23.27;39.80;99072.39;80847;1294;3052415;-67
2023/07/19 08:30:56;;;;;;;2.10;1.00;;;;;;;23.49;39.57;99075.80;82138;1295;3012590;-68
2023/07/19 08:33:28;;;;;;;3.20;1.20;;;;;;;23.30;39.37;99073.77;80839;1294;3049070;-71
2023/07/19 08:35:54;;;;;;;1.50;1.00;;;;;;;23.15;40.07;99081.95;82155;1295;3012633;-69
2023/07/19 08:38:21;;;;;;;4.70;1.20;;;;;;;23.07;40.67;99077.55;82133;1292;3011194;-67
2023/07/19 08:41:03;;;;;;;2.40;0.90;;;;;;;23.18;40.70;99080.74;80862;1295;3053979;-69
2023/07/19 08:43:37;;;;;;;9.80;1.20;;;;;;;23.28;39.30;99087.45;80867;1293;3068968;-75
2023/07/19 08:46:03;;;;;;;2.90;0.90;;;;;;;23.19;38.13;99085.80;82127;1294;3011253;-74
2023/07/19 08:48:31;;;;;;;2.70;1.20;;;;;;;23.24;38.17;99085.96;80862;1292;3055823;-68
2023/07/19 08:51:00;;;;;;;2.80;1.10;;;;;;;23.14;39.25;99087.31;82116;1293;3012871;-68
2023/07/19 08:53:27;;;;;;;2.10;1.10;;;;;;;23.10;39.30;99085.27;82116;1294;3011318;-67
2023/07/19 08:55:57;;;;;;;6.10;1.60;;;;;;;23.00;39.46;99077.13;80886;1295;3052448;-66
2023/07/19 08:58:23;;;;;;;5.30;1.20;;;;;;;22.96;40.29;99080.29;82173;1293;3013216;-67
2023/07/19 09:00:50;;;;;;;3.20;1.30;;;;;;;23.02;40.52;99076.54;82121;1292;3011212;-67
2023/07/19 09:03:17;;;;;;;6.20;1.30;;;;;;;23.12;40.19;99079.83;80853;1295;3055834;-67
2023/07/19 09:05:45;;;;;;;3.10;1.20;;;;;;;23.12;40.12;99071.33;82187;1295;3013148;-67
2023/07/19 09:08:12;;;;;;;1.70;1.00;;;;;;;23.06;40.04;99061.77;82146;1292;3010815;-65
2023/07/19 09:10:44;;;;;;;1.40;0.90;;;;;;;23.26;39.11;99059.34;80925;1295;3050955;-65
2023/07/19 09:13:17;;;;;;;3.80;1.10;;;;;;;23.44;38.37;99060.16;82114;1295;3011173;-66
2023/07/19 09:15:48;;;;;;;6.60;1.20;;;;;;;23.51;38.44;99055.88;80857;1292;3068232;-70
2023/07/19 09:18:15;;;;;;;3.90;1.40;;;;;;;23.43;37.85;99053.06;82176;1292;3011691;-67
2023/07/19 09:20:44;;;;;;;4.00;1.70;;;;;;;23.39;38.07;99043.98;81604;1292;3011231;-69
2023/07/19 09:23:11;;;;;;;4.60;1.80;;;;;;;23.56;37.81;99051.16;82132;1294;3011562;-71
2023/07/19 09:25:56;;;;;;;9.60;1.50;;;;;;;23.51;37.66;99043.21;82128;1294;3011772;-67
2023/07/19 09:28:25;;;;;;;3.40;1.20;;;;;;;23.93;36.89;99048.63;80928;1295;3053677;-69
2023/07/19 09:30:58;;;;;;;2.90;0.90;;;;;;;24.13;36.29;99046.86;82193;1292;3013170;-66
2023/07/19 09:33:29;;;;;;;3.00;1.00;;;;;;;24.26;36.32;99042.65;80944;1292;3053204;-68
2023/07/19 09:35:56;;;;;;;2.10;0.90;;;;;;;24.46;36.58;99041.59;82199;1292;3012310;-68
2023/07/19 09:38:25;;;;;;;2.40;1.10;;;;;;;24.38;35.57;99037.92;81674;1292;3011570;-73
2023/07/19 09:40:53;;;;;;;2.30;0.70;;;;;;;24.42;35.64;99041.91;82193;1293;3012333;-67
2023/07/19 09:43:20;;;;;;;4.30;1.10;;;;;;;24.53;35.64;99041.07;82173;1292;3011302;-67
2023/07/19 09:45:49;;;;;;;2.00;1.00;;;;;;;24.74;35.32;99033.03;80937;1295;3052315;-67
2023/07/19 09:48:16;;;;;;;5.40;1.10;;;;;;;24.76;35.30;99028.33;82199;1297;3012651;-67
2023/07/19 09:50:42;;;;;;;2.60;0.90;;;;;;;24.60;35.73;99039.60;82203;1292;3011169;-65
2023/07/19 09:53:12;;;;;;;1.80;0.60;;;;;;;24.38;35.85;99037.39;80912;1292;3048268;-67
2023/07/19 09:55:39;;;;;;;3.10;1.20;;;;;;;24.48;36.06;99024.25;82163;1292;3011274;-67
2023/07/19 09:58:07;;;;;;;2.60;1.30;;;;;;;24.55;35.67;99015.90;82217;1292;3011067;-68
2023/07/19 10:00:35;;;;;;;3.10;1.40;;;;;;;24.95;35.32;99024.15;80702;1301;3053101;-65
2023/07/19 10:03:02;;;;;;;2.60;1.10;;;;;;;25.06;34.51;99020.05;82200;1292;3010870;-67
2023/07/19 10:05:29;;;;;;;4.30;0.90;;;;;;;25.20;34.18;99020.04;82141;1292;3011155;-68
2023/07/19 10:08:10;;;;;;;2.80;0.80;;;;;;;24.90;34.20;99029.59;80875;1292;3049662;-71
2023/07/19 10:10:39;;;;;;;3.50;1.00;;;;;;;24.74;34.08;99024.63;80880;1292;3052744;-72
2023/07/19 10:13:06;;;;;;;3.60;0.70;;;;;;;24.52;33.98;99033.34;82148;1293;3012889;-68
2023/07/19 10:15:34;;;;;;;4.70;1.00;;;;;;;24.35;33.24;99028.95;82175;1295;3011251;-70
2023/07/19 10:18:02;;;;;;;3.60;2.00;;;;;;;24.71;33.54;99025.20;80802;1292;3067966;-64
2023/07/19 10:20:32;;;;;;;2.70;1.40;;;;;;;24.96;33.15;99025.78;82146;1295;3012355;-66
2023/07/19 10:23:03;;;;;;;2.90;1.10;;;;;;;25.08;33.06;99028.41;80900;1292;3049747;-68
2023/07/19 10:25:34;;;;;;;1.80;0.90;;;;;;;25.26;33.32;99026.61;82145;1293;3011540;-68
2023/07/19 10:28:07;;;;;;;6.10;1.30;;;;;;;25.55;33.26;99022.90;80811;1293;3049231;-70
2023/07/19 10:30:44;;;;;;;4.90;1.40;;;;;;;25.83;33.04;99013.10;82129;1295;3011214;-67
2023/07/19 10:33:19;;;;;;;3.10;1.60;;;;;;;25.79;32.83;99026.88;80885;1295;3053237;-72
2023/07/19 10:35:50;;;;;;;3.00;1.50;;;;;;;25.59;33.49;99008.10;81615;1295;3011493;-69
2023/07/19 10:38:17;;;;;;;6.30;1.40;;;;;;;25.35;33.72;99017.68;82145;1294;3010836;-68
2023/07/19 10:40:52;;;;;;;5.20;1.10;;;;;;;25.32;33.62;99016.33;81647;1292;3011544;-70
2023/07/19 10:43:23;;;;;;;4.80;1.10;;;;;;;25.36;33.31;99011.50;81609;1295;3011426;-71
2023/07/19 10:45:51;;;;;;;4.40;1.30;;;;;;;25.22;33.59;99001.14;82201;1294;3011226;-68
2023/07/19 10:48:18;;;;;;;2.80;1.40;;;;;;;25.09;33.98;99009.76;82162;1292;3011413;-72
2023/07/19 10:50:46;;;;;;;8.70;1.60;;;;;;;25.28;33.24;98998.37;80894;1292;3048037;-72
2023/07/19 10:53:14;;;;;;;6.10;1.40;;;;;;;25.01;33.50;98999.01;82214;1295;3012833;-74
2023/07/19 10:55:41;;;;;;;2.10;1.20;;;;;;;24.79;33.68;99006.08;82165;1295;3011358;-72
2023/07/19 10:58:09;;;;;;;6.00;1.00;;;;;;;24.90;33.72;99002.56;80892;1295;3051812;-72
2023/07/19 11:00:37;;;;;;;2.10;0.70;;;;;;;24.90;33.48;98996.77;82138;1295;3011403;-70
2023/07/19 11:03:05;;;;;;;5.00;1.80;;;;;;;24.80;33.43;98991.59;82160;1292;3011327;-71
2023/07/19 11:05:39;;;;;;;5.70;1.70;;;;;;;25.25;33.22;98983.39;80897;1295;3049500;-68
2023/07/19 11:08:06;;;;;;;2.80;1.40;;;;;;;25.60;32.17;98976.79;82166;1295;3011282;-70
2023/07/19 11:10:33;;;;;;;6.20;1.20;;;;;;;25.73;31.69;98978.52;80813;1295;3053052;-66
2023/07/19 11:13:00;;;;;;;5.90;1.60;;;;;;;25.84;31.87;98974.56;82162;1292;3018410;-69
2023/07/19 11:15:27;;;;;;;3.70;1.70;;;;;;;26.17;31.73;98968.78;82159;1292;3011286;-67
2023/07/19 11:17:56;;;;;;;4.30;1.80;;;;;;;26.07;31.31;98971.34;80888;1292;3025981;-69
2023/07/19 11:20:30;;;;;;;4.70;2.20;;;;;;;26.42;31.46;98965.27;82118;1295;3012811;-67
2023/07/19 11:23:08;;;;;;;5.10;2.70;;;;;;;26.60;31.01;98972.17;80910;1295;3051905;-66